Time;durP1;ratioP1;P1;durP2;ratioP2;P2;SDS_P1;SDS_P2;PMS_P1;PMS_P2;Temp;Humidity;BMP_temperature;BMP_pressure;BME280_temperature;BME280_humidity;BME280_pressure;Samples;Min_cycle;Max_cycle;Signal;HPM_P1;HPM_P2
2022/07/06 00:02:18;;;;;;;2.70;2.03;;;15.90;99.90;;;;;;5048562;28;20454;-70
2022/07/06 00:05:20;;;;;;;4.03;2.10;;;15.90;99.90;;;;;;5046770;28;20519;-70
2022/07/06 00:08:29;;;;;;;3.00;1.53;;;16.00;99.90;;;;;;5045514;28;20473;-70
2022/07/06 00:11:59;;;;;;;4.63;2.00;;;15.90;99.90;;;;;;5047254;28;20483;-70
2022/07/06 00:14:47;;;;;;;2.80;1.90;;;15.90;99.90;;;;;;5044561;28;20555;-70
2022/07/06 00:17:51;;;;;;;2.87;1.70;;;15.90;99.90;;;;;;5050326;28;20825;-68
2022/07/06 00:20:46;;;;;;;4.67;1.90;;;15.90;99.90;;;;;;5047003;28;20490;-71
2022/07/06 00:23:37;;;;;;;4.50;2.00;;;15.90;99.90;;;;;;5047638;28;20869;-71
2022/07/06 00:30:09;;;;;;;4.07;1.80;;;15.90;99.90;;;;;;5049916;28;21041;-70
2022/07/06 00:33:09;;;;;;;3.70;1.70;;;15.80;99.90;;;;;;5047581;28;20658;-71
2022/07/06 00:36:03;;;;;;;2.93;1.93;;;15.80;99.90;;;;;;5050034;28;20470;-70
2022/07/06 00:42:45;;;;;;;4.00;1.73;;;15.80;99.90;;;;;;5005380;28;20467;-70
2022/07/06 00:45:51;;;;;;;3.10;1.77;;;15.80;99.90;;;;;;4957581;28;20485;-70
2022/07/06 00:48:42;;;;;;;1.80;1.70;;;15.70;99.90;;;;;;5037014;28;23151;-71
2022/07/06 00:51:49;;;;;;;1.80;1.60;;;15.70;99.90;;;;;;5036205;28;20581;-70
2022/07/06 00:55:13;;;;;;;2.23;1.80;;;15.70;99.90;;;;;;5038881;28;20570;-71
2022/07/06 01:01:44;;;;;;;4.00;1.70;;;15.70;99.90;;;;;;5031938;28;20461;-70
2022/07/06 01:07:56;;;;;;;3.00;1.80;;;15.70;99.90;;;;;;5041581;28;20474;-71
2022/07/06 01:10:47;;;;;;;2.87;1.73;;;15.70;99.90;;;;;;5032323;28;20473;-71
2022/07/06 01:13:57;;;;;;;4.33;1.80;;;15.70;99.90;;;;;;5037604;28;20465;-68
2022/07/06 01:20:28;;;;;;;2.93;1.73;;;15.70;99.90;;;;;;5020860;28;20475;-70
2022/07/06 01:23:47;;;;;;;2.37;1.70;;;15.60;99.90;;;;;;5042017;28;20469;-70
2022/07/06 01:27:08;;;;;;;5.10;1.90;;;15.60;99.90;;;;;;5046666;28;20505;-70
2022/07/06 01:33:34;;;;;;;2.27;1.70;;;15.60;99.90;;;;;;5048743;28;20458;-68
2022/07/06 01:36:50;;;;;;;2.77;1.90;;;15.60;99.90;;;;;;5045147;28;20571;-69
2022/07/06 01:39:58;;;;;;;4.90;1.90;;;15.60;99.90;;;;;;5045675;28;21001;-70
2022/07/06 01:43:06;;;;;;;5.77;2.30;;;15.60;99.90;;;;;;5047962;28;20490;-70
2022/07/06 01:46:25;;;;;;;5.10;1.83;;;15.50;99.90;;;;;;5043507;28;20504;-70
2022/07/06 01:52:34;;;;;;;2.80;2.27;;;15.50;99.90;;;;;;5039814;28;20458;-70
2022/07/06 01:55:31;;;;;;;1.90;1.57;;;15.50;99.90;;;;;;5039205;28;20829;-70
2022/07/06 01:59:07;;;;;;;2.63;1.90;;;15.50;99.90;;;;;;5047662;28;20477;-69
2022/07/06 02:02:10;;;;;;;4.00;1.80;;;15.50;99.90;;;;;;5053424;28;20438;-69
2022/07/06 02:08:40;;;;;;;3.23;1.97;;;15.40;99.90;;;;;;5050764;28;20952;-69
2022/07/06 02:11:40;;;;;;;5.07;1.90;;;15.40;99.90;;;;;;5048252;28;20478;-69
2022/07/06 02:14:52;;;;;;;3.00;1.90;;;15.40;99.90;;;;;;5048946;28;20536;-69
2022/07/06 02:18:10;;;;;;;3.23;1.97;;;15.40;99.90;;;;;;5048988;28;20849;-71
2022/07/06 02:21:21;;;;;;;2.70;2.07;;;15.30;99.90;;;;;;5051552;28;20481;-70
2022/07/06 02:24:45;;;;;;;3.00;2.00;;;15.30;99.90;;;;;;5050090;28;20461;-71
2022/07/06 02:27:44;;;;;;;2.53;2.07;;;15.30;99.90;;;;;;5050423;28;20482;-70
2022/07/06 02:30:55;;;;;;;4.23;2.33;;;15.30;99.90;;;;;;5047609;28;20564;-69
2022/07/06 02:34:06;;;;;;;3.13;1.87;;;15.30;99.90;;;;;;5048498;28;21100;-70
2022/07/06 02:37:10;;;;;;;2.47;2.20;;;15.30;99.90;;;;;;5046041;28;20461;-69
2022/07/06 02:44:21;;;;;;;3.70;2.20;;;15.30;99.90;;;;;;5046397;28;20454;-70
2022/07/06 02:47:27;;;;;;;3.93;2.00;;;15.30;99.90;;;;;;5048947;28;20451;-70
2022/07/06 02:50:24;;;;;;;2.20;1.80;;;15.30;99.90;;;;;;5050799;28;20513;-70
2022/07/06 02:56:52;;;;;;;2.60;1.60;;;15.30;99.90;;;;;;5046743;28;20474;-70
2022/07/06 03:00:12;;;;;;;2.63;1.87;;;15.20;99.90;;;;;;5049168;28;20474;-70
2022/07/06 03:03:11;;;;;;;1.93;1.40;;;15.30;99.90;;;;;;5049906;28;20457;-70
2022/07/06 03:06:21;;;;;;;2.67;1.57;;;15.20;99.90;;;;;;5047013;28;20476;-69
2022/07/06 03:09:23;;;;;;;2.50;1.83;;;15.20;99.90;;;;;;5049195;28;20997;-69
2022/07/06 03:12:25;;;;;;;3.30;1.50;;;15.30;99.90;;;;;;5047376;28;20528;-69
2022/07/06 03:15:25;;;;;;;2.33;1.70;;;15.30;99.90;;;;;;5047646;28;20470;-68
2022/07/06 03:21:52;;;;;;;2.93;1.40;;;15.20;99.90;;;;;;5047581;28;20445;-71
2022/07/06 03:24:49;;;;;;;3.10;1.50;;;15.20;99.90;;;;;;5049645;28;20474;-71
2022/07/06 03:27:50;;;;;;;1.87;1.60;;;15.20;99.90;;;;;;5046543;28;20868;-71
2022/07/06 03:30:52;;;;;;;2.97;1.57;;;15.20;99.90;;;;;;5047912;28;20475;-71
2022/07/06 03:34:02;;;;;;;4.00;1.50;;;15.20;99.90;;;;;;5045490;28;20461;-70
2022/07/06 03:37:22;;;;;;;3.03;1.83;;;15.20;99.90;;;;;;5048782;28;20895;-71
2022/07/06 03:40:44;;;;;;;2.37;1.67;;;15.20;99.90;;;;;;5032287;28;20539;-70
2022/07/06 03:44:11;;;;;;;2.40;1.70;;;15.20;99.90;;;;;;5046250;28;20458;-70
2022/07/06 03:47:45;;;;;;;3.00;1.80;;;15.20;99.90;;;;;;5046594;28;20581;-70
2022/07/06 03:50:41;;;;;;;2.30;2.07;;;15.20;99.90;;;;;;5047413;28;20559;-71
2022/07/06 03:53:38;;;;;;;3.10;1.80;;;15.20;99.90;;;;;;5049232;28;20451;-70
2022/07/06 03:57:16;;;;;;;5.77;2.53;;;15.20;99.90;;;;;;5046683;28;20455;-70
2022/07/06 04:00:46;;;;;;;3.07;1.87;;;15.20;99.90;;;;;;5041849;28;20474;-70
2022/07/06 04:07:48;;;;;;;4.13;2.13;;;15.20;99.90;;;;;;5049132;28;20857;-71
2022/07/06 04:14:25;;;;;;;2.90;1.80;;;15.20;99.90;;;;;;5049328;28;20510;-69
2022/07/06 04:17:55;;;;;;;2.60;1.90;;;15.20;99.90;;;;;;5049226;28;20453;-70
2022/07/06 04:20:58;;;;;;;3.27;2.27;;;15.20;99.90;;;;;;5045067;28;20575;-70
2022/07/06 04:24:08;;;;;;;1.93;1.80;;;15.20;99.90;;;;;;5047864;28;20527;-69
2022/07/06 04:27:05;;;;;;;2.63;1.40;;;15.20;99.90;;;;;;5045273;28;20508;-70
2022/07/06 04:29:59;;;;;;;2.63;1.73;;;15.20;99.90;;;;;;5048816;28;21051;-69
2022/07/06 04:32:49;;;;;;;3.33;1.40;;;15.20;99.90;;;;;;5047887;28;20573;-69
2022/07/06 04:35:49;;;;;;;2.23;1.30;;;15.20;99.90;;;;;;5048183;28;20478;-69
2022/07/06 04:38:51;;;;;;;2.07;1.20;;;15.10;99.90;;;;;;5046535;28;20527;-70
2022/07/06 04:45:31;;;;;;;3.30;1.50;;;15.10;99.90;;;;;;5041737;28;20489;-70
2022/07/06 04:48:42;;;;;;;1.70;1.60;;;15.20;99.90;;;;;;5037638;28;20568;-70
2022/07/06 04:51:39;;;;;;;2.00;1.70;;;15.20;99.90;;;;;;5044108;28;20589;-70
2022/07/06 04:54:56;;;;;;;;;;;;;;;;;;;;;
2022/07/06 04:57:45;;;;;;;2.40;1.20;;;15.20;99.90;;;;;;5036565;28;20466;-70
2022/07/06 05:00:46;;;;;;;6.03;1.70;;;15.20;99.90;;;;;;5046548;28;20500;-68
2022/07/06 05:03:40;;;;;;;3.07;1.80;;;15.20;99.90;;;;;;5047689;28;21008;-69
2022/07/06 05:10:03;;;;;;;4.23;1.87;;;15.40;99.90;;;;;;5048981;28;20849;-70
2022/07/06 05:12:54;;;;;;;3.37;1.60;;;15.40;99.90;;;;;;5045230;28;20482;-69
2022/07/06 05:15:44;;;;;;;2.77;1.50;;;15.40;99.90;;;;;;5035242;28;20470;-68
2022/07/06 05:18:40;;;;;;;3.63;1.30;;;15.40;99.90;;;;;;5031577;28;20471;-69
2022/07/06 05:21:41;;;;;;;2.03;1.33;;;15.50;99.90;;;;;;5040781;28;21843;-69
2022/07/06 05:27:51;;;;;;;2.83;1.60;;;15.50;99.90;;;;;;5036947;28;20458;-70
2022/07/06 05:30:52;;;;;;;2.57;1.40;;;15.50;99.90;;;;;;5040837;28;20597;-72
2022/07/06 05:33:56;;;;;;;3.67;1.57;;;15.40;99.90;;;;;;5047590;28;20462;-69
2022/07/06 05:37:06;;;;;;;6.10;2.93;;;15.50;99.90;;;;;;5045907;28;20478;-70
2022/07/06 05:39:57;;;;;;;2.30;1.53;;;15.50;99.90;;;;;;5042449;28;20470;-69
2022/07/06 05:43:04;;;;;;;3.13;1.83;;;15.50;99.90;;;;;;5037359;28;20451;-71
2022/07/06 05:46:17;;;;;;;3.00;1.63;;;15.40;99.90;;;;;;5048887;28;21171;-70
2022/07/06 05:53:15;;;;;;;2.40;1.80;;;15.50;99.90;;;;;;5044288;28;20533;-70
2022/07/06 05:56:27;;;;;;;3.77;2.00;;;15.40;99.90;;;;;;5045308;28;20493;-69
2022/07/06 05:59:27;;;;;;;2.70;1.60;;;15.40;99.90;;;;;;5046094;28;20481;-71
2022/07/06 06:02:17;;;;;;;4.83;1.90;;;15.40;99.90;;;;;;5044821;28;20447;-70
2022/07/06 06:05:08;;;;;;;4.37;1.80;;;15.40;99.90;;;;;;5030465;28;20577;-71
2022/07/06 06:08:00;;;;;;;3.43;1.90;;;15.40;99.90;;;;;;5040217;28;20458;-70
2022/07/06 06:10:55;;;;;;;3.37;2.00;;;15.40;99.90;;;;;;5044575;28;20601;-70
2022/07/06 06:13:51;;;;;;;3.30;2.00;;;15.40;99.90;;;;;;5046314;28;20629;-70
2022/07/06 06:16:50;;;;;;;3.93;1.70;;;15.30;99.90;;;;;;5045559;28;20500;-69
2022/07/06 06:19:44;;;;;;;3.50;1.77;;;15.30;99.90;;;;;;5044954;28;20486;-71
2022/07/06 06:22:47;;;;;;;3.10;2.50;;;15.30;99.90;;;;;;5048038;28;20456;-70
2022/07/06 06:25:37;;;;;;;2.47;1.43;;;15.30;99.90;;;;;;5044592;28;20683;-69
2022/07/06 06:28:30;;;;;;;2.10;1.70;;;15.30;99.90;;;;;;5045165;28;20616;-71
2022/07/06 06:31:23;;;;;;;2.00;1.60;;;15.30;99.90;;;;;;5044753;28;20457;-69
2022/07/06 06:34:14;;;;;;;2.73;1.90;;;15.30;99.90;;;;;;5046414;28;20497;-70
2022/07/06 06:37:02;;;;;;;3.03;1.80;;;15.30;99.90;;;;;;5043529;28;20459;-70
2022/07/06 06:39:54;;;;;;;3.83;1.50;;;15.40;99.90;;;;;;5042098;28;20865;-70
2022/07/06 06:42:42;;;;;;;2.60;1.40;;;15.40;99.90;;;;;;5046356;28;20456;-71
2022/07/06 06:45:32;;;;;;;3.03;1.30;;;15.40;99.90;;;;;;5045965;28;20478;-70
2022/07/06 06:48:23;;;;;;;2.90;1.67;;;15.50;99.90;;;;;;5050097;28;20593;-70
2022/07/06 06:51:31;;;;;;;3.10;1.47;;;15.50;99.90;;;;;;5048900;28;20469;-69
2022/07/06 06:54:19;;;;;;;3.80;1.53;;;15.50;99.90;;;;;;5047210;28;21013;-69
2022/07/06 06:57:08;;;;;;;2.90;2.03;;;15.60;99.90;;;;;;5051407;28;20653;-69
2022/07/06 06:59:57;;;;;;;2.47;1.50;;;15.60;99.90;;;;;;5049650;28;20513;-69
2022/07/06 07:02:49;;;;;;;1.77;1.20;;;15.60;99.90;;;;;;5050778;28;20473;-70
2022/07/06 07:05:37;;;;;;;3.50;1.70;;;15.60;99.90;;;;;;5049016;28;20522;-70
2022/07/06 07:08:27;;;;;;;2.87;1.43;;;15.70;99.90;;;;;;5048465;28;20534;-70
2022/07/06 07:11:16;;;;;;;2.03;1.50;;;15.70;99.90;;;;;;5049961;28;20944;-70
2022/07/06 07:14:04;;;;;;;4.60;1.50;;;15.70;99.90;;;;;;5044423;28;20467;-70
2022/07/06 07:16:52;;;;;;;1.97;1.30;;;15.70;99.90;;;;;;5048649;28;20512;-70
2022/07/06 07:19:43;;;;;;;3.50;1.43;;;15.70;99.90;;;;;;5049166;28;21002;-70
2022/07/06 07:22:31;;;;;;;2.70;1.67;;;15.80;99.90;;;;;;5049619;28;20501;-70
2022/07/06 07:25:21;;;;;;;6.20;1.77;;;15.80;99.90;;;;;;5046121;28;20482;-70
2022/07/06 07:28:10;;;;;;;1.60;1.30;;;15.80;99.90;;;;;;5047106;28;20451;-69
2022/07/06 07:30:58;;;;;;;3.17;1.50;;;15.80;99.90;;;;;;5047276;28;21037;-70
2022/07/06 07:33:46;;;;;;;2.63;1.20;;;15.80;99.90;;;;;;5045946;28;20477;-70
2022/07/06 07:36:38;;;;;;;3.37;1.40;;;15.80;99.90;;;;;;5044820;28;20486;-70
2022/07/06 07:39:27;;;;;;;1.53;0.97;;;15.80;99.90;;;;;;5045548;28;20635;-70
2022/07/06 07:42:15;;;;;;;3.20;1.53;;;15.90;99.90;;;;;;5047174;28;20552;-70
2022/07/06 07:45:06;;;;;;;3.10;1.73;;;15.90;99.90;;;;;;5048657;28;20476;-69
2022/07/06 07:47:57;;;;;;;2.93;1.40;;;15.90;99.90;;;;;;5048831;28;20620;-70
2022/07/06 07:50:48;;;;;;;1.40;1.00;;;15.90;99.90;;;;;;5045566;28;20551;-70
2022/07/06 07:53:38;;;;;;;3.80;1.23;;;15.90;99.90;;;;;;5047965;28;20467;-71
2022/07/06 07:56:26;;;;;;;1.53;1.13;;;15.90;99.90;;;;;;5045762;28;20552;-70
2022/07/06 07:59:14;;;;;;;2.97;1.03;;;15.90;99.90;;;;;;5044338;28;20544;-72
2022/07/06 08:02:07;;;;;;;2.37;0.90;;;16.00;99.90;;;;;;5045208;28;21037;-71
2022/07/06 08:04:57;;;;;;;1.27;0.90;;;16.10;99.90;;;;;;5046148;28;20847;-70
2022/07/06 08:07:48;;;;;;;0.97;0.70;;;16.10;99.90;;;;;;5044728;28;20458;-70
2022/07/06 08:10:42;;;;;;;1.90;0.80;;;16.10;99.90;;;;;;5043357;28;20572;-71
2022/07/06 08:13:53;;;;;;;1.20;1.10;;;16.20;99.90;;;;;;5047563;28;20482;-71
2022/07/06 08:16:42;;;;;;;2.80;1.00;;;16.30;99.90;;;;;;5048622;28;20463;-70
2022/07/06 08:19:30;;;;;;;1.00;0.90;;;16.30;99.90;;;;;;5046798;28;21037;-70
2022/07/06 08:22:21;;;;;;;2.30;0.90;;;16.40;99.90;;;;;;5046347;28;20895;-70
2022/07/06 08:25:12;;;;;;;0.87;0.87;;;16.40;99.90;;;;;;5044220;28;20557;-69
2022/07/06 08:28:02;;;;;;;2.50;1.30;;;16.40;99.90;;;;;;5047712;28;20473;-69
2022/07/06 08:30:50;;;;;;;2.90;1.20;;;16.40;99.90;;;;;;5046306;28;20463;-71
2022/07/06 08:33:39;;;;;;;2.23;1.20;;;16.40;99.90;;;;;;5048772;28;20475;-70
2022/07/06 08:36:29;;;;;;;4.00;1.27;;;16.50;99.90;;;;;;5047169;28;20469;-70
2022/07/06 08:39:19;;;;;;;1.83;1.37;;;16.50;99.90;;;;;;5046029;28;20568;-70
2022/07/06 08:42:13;;;;;;;1.60;1.20;;;16.50;99.90;;;;;;5046215;28;21163;-70
2022/07/06 08:45:16;;;;;;;1.30;1.20;;;16.40;99.90;;;;;;5042290;28;20520;-70
2022/07/06 08:48:09;;;;;;;2.70;1.10;;;16.40;99.90;;;;;;5046753;28;20534;-71
2022/07/06 08:51:00;;;;;;;2.00;1.23;;;16.50;99.90;;;;;;5047890;28;20977;-70
2022/07/06 08:53:50;;;;;;;2.60;1.10;;;16.40;99.90;;;;;;5044623;28;20605;-70
2022/07/06 08:56:39;;;;;;;3.60;1.17;;;16.50;99.90;;;;;;5044671;28;21057;-69
2022/07/06 08:59:40;;;;;;;1.70;1.27;;;16.40;99.90;;;;;;5044673;28;20884;-71
2022/07/06 09:02:32;;;;;;;1.43;1.23;;;16.40;99.90;;;;;;5044298;28;20458;-71
2022/07/06 09:05:24;;;;;;;2.70;1.53;;;16.40;99.90;;;;;;5044345;28;21268;-70
2022/07/06 09:08:13;;;;;;;1.43;1.33;;;16.40;99.90;;;;;;5045817;28;20487;-70
2022/07/06 09:11:08;;;;;;;2.50;1.50;;;16.40;99.90;;;;;;5046101;28;20557;-72
2022/07/06 09:13:57;;;;;;;2.90;1.20;;;16.50;99.90;;;;;;5046434;28;20609;-69
2022/07/06 09:16:52;;;;;;;1.10;1.00;;;16.60;99.90;;;;;;5045670;28;20458;-69
2022/07/06 09:19:46;;;;;;;1.63;1.00;;;16.60;99.90;;;;;;5043150;28;20474;-70
2022/07/06 09:22:37;;;;;;;1.50;1.00;;;16.70;99.90;;;;;;5038066;28;20470;-70
2022/07/06 09:25:29;;;;;;;1.93;0.80;;;16.80;99.90;;;;;;5041157;28;20470;-70
2022/07/06 09:28:17;;;;;;;1.17;0.90;;;16.80;99.90;;;;;;5038125;28;20479;-69
2022/07/06 09:31:08;;;;;;;0.80;0.80;;;16.90;99.90;;;;;;5041458;28;20546;-70
2022/07/06 09:34:06;;;;;;;0.90;0.80;;;16.90;99.90;;;;;;5043405;28;20470;-72
2022/07/06 09:37:03;;;;;;;4.20;1.40;;;17.00;99.90;;;;;;5044835;28;20549;-74
2022/07/06 09:39:54;;;;;;;2.73;1.17;;;17.00;99.90;;;;;;5044866;28;20510;-72
2022/07/06 09:42:46;;;;;;;2.23;1.40;;;17.00;99.90;;;;;;5045861;28;20545;-73
2022/07/06 09:45:49;;;;;;;3.07;2.00;;;17.00;99.90;;;;;;5039243;28;20470;-70
2022/07/06 09:48:37;;;;;;;3.73;1.50;;;17.10;99.90;;;;;;5044743;28;20462;-71
2022/07/06 09:51:31;;;;;;;1.60;1.50;;;17.20;99.90;;;;;;5039662;28;20588;-71
2022/07/06 09:54:21;;;;;;;2.50;1.30;;;17.20;99.90;;;;;;5040333;28;21412;-70
2022/07/06 09:57:14;;;;;;;1.30;1.07;;;17.30;99.90;;;;;;5034919;28;20455;-70
2022/07/06 10:00:11;;;;;;;1.73;1.20;;;17.40;99.90;;;;;;5034832;28;20513;-69
2022/07/06 10:03:10;;;;;;;1.33;1.07;;;17.60;99.90;;;;;;5036159;28;20588;-70
2022/07/06 10:06:05;;;;;;;2.80;1.43;;;17.60;99.90;;;;;;5040806;28;20525;-71
2022/07/06 10:08:59;;;;;;;1.37;1.10;;;17.70;99.90;;;;;;5042982;28;20471;-71
2022/07/06 10:11:51;;;;;;;1.73;1.13;;;17.80;99.90;;;;;;5046044;28;20458;-70
2022/07/06 10:14:56;;;;;;;1.80;1.27;;;17.90;99.90;;;;;;5045390;28;21026;-70
2022/07/06 10:17:48;;;;;;;2.10;0.87;;;17.90;99.90;;;;;;5049032;28;20495;-70
2022/07/06 10:20:40;;;;;;;1.13;1.00;;;17.70;99.90;;;;;;5048263;28;20471;-70
2022/07/06 10:23:29;;;;;;;1.53;0.77;;;17.70;99.90;;;;;;5050439;28;20497;-70
2022/07/06 10:26:24;;;;;;;1.33;0.70;;;17.50;99.90;;;;;;5039198;28;20496;-71
2022/07/06 10:29:17;;;;;;;2.60;0.67;;;17.40;99.90;;;;;;5050056;28;20494;-70
2022/07/06 10:32:06;;;;;;;2.50;0.63;;;17.30;99.90;;;;;;5047143;28;20504;-70
2022/07/06 10:34:56;;;;;;;3.47;0.70;;;17.20;99.90;;;;;;5046026;28;20571;-70
2022/07/06 10:37:44;;;;;;;1.60;0.67;;;17.10;99.90;;;;;;5041980;28;20796;-70
2022/07/06 10:43:48;;;;;;;1.00;0.67;;;16.90;99.90;;;;;;5046572;28;20451;-69
2022/07/06 10:46:40;;;;;;;1.70;0.80;;;16.80;99.90;;;;;;5045467;28;20497;-69
2022/07/06 10:49:35;;;;;;;1.50;0.70;;;16.80;99.90;;;;;;5038701;28;20488;-69
2022/07/06 10:53:01;;;;;;;1.50;1.10;;;16.80;99.90;;;;;;5036797;28;20947;-70
2022/07/06 10:55:51;;;;;;;3.03;1.73;;;16.80;99.90;;;;;;5042749;28;20572;-71
2022/07/06 10:58:50;;;;;;;3.60;1.63;;;16.70;99.90;;;;;;5038841;28;20521;-71
2022/07/06 11:01:44;;;;;;;1.90;1.53;;;16.70;99.90;;;;;;5038508;28;20500;-71
2022/07/06 11:04:39;;;;;;;2.87;1.40;;;16.80;99.90;;;;;;5046414;28;21921;-71
2022/07/06 11:07:27;;;;;;;2.43;1.20;;;16.80;99.90;;;;;;5043809;28;20592;-70
2022/07/06 11:10:26;;;;;;;1.40;1.30;;;16.90;99.90;;;;;;5044616;28;20577;-70
2022/07/06 11:13:27;;;;;;;2.63;1.40;;;16.90;99.90;;;;;;5041434;28;20565;-70
2022/07/06 11:16:25;;;;;;;3.17;1.53;;;17.00;99.90;;;;;;5040607;28;20482;-70
2022/07/06 11:19:16;;;;;;;4.40;1.23;;;17.10;99.90;;;;;;5047330;28;20482;-70
2022/07/06 11:22:09;;;;;;;2.00;1.10;;;17.20;99.90;;;;;;5044062;28;20447;-70
2022/07/06 11:24:59;;;;;;;2.50;1.13;;;17.40;99.90;;;;;;5046148;28;20847;-70
2022/07/06 11:27:51;;;;;;;3.43;0.90;;;17.60;99.90;;;;;;5044338;28;20554;-70
2022/07/06 11:30:47;;;;;;;3.07;1.30;;;17.80;99.90;;;;;;5040561;28;20486;-70
2022/07/06 11:33:38;;;;;;;2.30;0.90;;;17.90;99.90;;;;;;5048265;28;21400;-69
2022/07/06 11:36:29;;;;;;;2.60;0.90;;;18.10;99.90;;;;;;5045451;28;20570;-69
2022/07/06 11:39:27;;;;;;;2.97;0.90;;;18.20;99.90;;;;;;5046035;28;20479;-70
2022/07/06 11:42:17;;;;;;;1.73;1.00;;;18.20;99.90;;;;;;5044462;28;20941;-71
2022/07/06 11:45:09;;;;;;;4.97;1.17;;;18.20;99.90;;;;;;5042409;28;21002;-69
2022/07/06 11:48:11;;;;;;;2.57;1.00;;;18.00;99.90;;;;;;5044275;28;20450;-69
2022/07/06 11:51:09;;;;;;;1.23;0.70;;;18.00;99.90;;;;;;5048506;28;20477;-71
2022/07/06 11:54:09;;;;;;;2.03;0.90;;;18.10;99.90;;;;;;5044845;28;20520;-71
2022/07/06 11:57:04;;;;;;;1.80;1.10;;;18.10;99.90;;;;;;5045496;28;20581;-70
2022/07/06 12:00:07;;;;;;;1.77;1.07;;;18.20;99.90;;;;;;5046340;28;20509;-69
2022/07/06 12:03:04;;;;;;;1.67;0.87;;;18.30;99.90;;;;;;5041584;28;20467;-69
2022/07/06 12:05:55;;;;;;;3.00;0.90;;;18.40;99.90;;;;;;5042120;28;20481;-71
2022/07/06 12:08:47;;;;;;;1.57;1.03;;;18.50;99.90;;;;;;5041117;28;20474;-69
2022/07/06 12:11:42;;;;;;;2.77;1.10;;;18.60;99.90;;;;;;5039111;28;20462;-69
2022/07/06 12:14:36;;;;;;;1.93;0.87;;;18.70;99.90;;;;;;5036815;28;20470;-70
2022/07/06 12:17:28;;;;;;;1.17;0.93;;;18.90;99.90;;;;;;5044159;28;20455;-70
2022/07/06 12:20:21;;;;;;;4.40;1.23;;;19.00;99.90;;;;;;5039922;28;20569;-69
2022/07/06 12:23:20;;;;;;;3.20;0.90;;;19.20;99.90;;;;;;5042373;28;20569;-69
2022/07/06 12:26:12;;;;;;;0.83;0.70;;;19.40;99.90;;;;;;5040718;28;20532;-71
2022/07/06 12:29:08;;;;;;;1.53;0.70;;;19.60;99.90;;;;;;5039046;28;20634;-71
2022/07/06 12:31:57;;;;;;;3.70;0.77;;;19.70;99.90;;;;;;5040152;28;20481;-72
2022/07/06 12:34:48;;;;;;;1.30;0.60;;;19.70;99.90;;;;;;5036698;28;22417;-71
2022/07/06 12:37:38;;;;;;;2.07;0.50;;;19.60;99.90;;;;;;5040233;28;21839;-68
2022/07/06 12:40:33;;;;;;;2.93;0.80;;;19.60;99.90;;;;;;5031063;28;20485;-69
2022/07/06 12:43:42;;;;;;;1.90;0.70;;;19.50;99.90;;;;;;5036624;28;20449;-73
2022/07/06 12:46:35;;;;;;;2.47;0.80;;;19.30;99.90;;;;;;5035768;28;20478;-69
2022/07/06 12:49:26;;;;;;;1.10;0.60;;;19.40;99.90;;;;;;5038093;28;20891;-69
2022/07/06 12:52:16;;;;;;;1.77;0.80;;;19.60;99.90;;;;;;5027764;28;20613;-68
2022/07/06 12:55:07;;;;;;;2.33;1.17;;;19.80;99.90;;;;;;5034579;28;20475;-68
2022/07/06 12:57:59;;;;;;;2.80;1.03;;;19.80;99.90;;;;;;5038478;28;20455;-69
2022/07/06 13:00:53;;;;;;;1.57;0.73;;;19.80;99.90;;;;;;5033604;28;20813;-68
2022/07/06 13:03:55;;;;;;;1.07;0.70;;;19.80;99.90;;;;;;5039282;28;21308;-68
2022/07/06 13:06:53;;;;;;;1.20;0.63;;;19.80;99.90;;;;;;5037616;28;20554;-70
2022/07/06 13:09:43;;;;;;;1.63;0.83;;;19.80;99.90;;;;;;5034268;28;20829;-70
2022/07/06 13:12:35;;;;;;;2.50;0.90;;;19.80;99.90;;;;;;5044695;28;20523;-70
2022/07/06 13:15:27;;;;;;;1.00;0.60;;;19.80;99.90;;;;;;5036232;28;20573;-70
2022/07/06 13:18:24;;;;;;;2.30;0.97;;;19.90;99.90;;;;;;5034154;28;20490;-70
2022/07/06 13:21:18;;;;;;;1.47;0.77;;;19.90;99.90;;;;;;5043960;28;20490;-69
2022/07/06 13:24:16;;;;;;;1.47;0.70;;;19.90;99.90;;;;;;5043808;28;21036;-70
2022/07/06 13:27:11;;;;;;;2.47;0.70;;;20.10;99.90;;;;;;5047675;28;20527;-70
2022/07/06 13:30:08;;;;;;;1.23;0.60;;;20.20;99.90;;;;;;5041161;28;20479;-70
2022/07/06 13:33:03;;;;;;;1.73;0.60;;;20.40;99.90;;;;;;5039754;28;20462;-69
2022/07/06 13:35:56;;;;;;;5.67;1.30;;;20.60;99.90;;;;;;5040661;28;20921;-69
2022/07/06 13:38:47;;;;;;;1.63;0.80;;;20.70;99.90;;;;;;5040751;28;20470;-70
2022/07/06 13:41:36;;;;;;;2.30;0.93;;;20.90;99.90;;;;;;5037710;28;20462;-67
2022/07/06 13:44:31;;;;;;;2.27;1.07;;;20.90;99.90;;;;;;5043275;28;20502;-71
2022/07/06 13:47:24;;;;;;;2.73;0.70;;;20.90;99.90;;;;;;5043544;28;20450;-72
2022/07/06 13:50:16;;;;;;;4.40;0.60;;;21.10;99.90;;;;;;5042568;28;21040;-74
2022/07/06 13:53:18;;;;;;;2.47;0.90;;;21.20;99.90;;;;;;5044446;28;20878;-74
2022/07/06 13:56:11;;;;;;;5.17;0.90;;;21.20;99.90;;;;;;5047117;28;20623;-73
2022/07/06 13:59:00;;;;;;;2.43;0.50;;;21.20;99.90;;;;;;5043678;28;20842;-71
2022/07/06 14:01:54;;;;;;;2.37;0.60;;;21.20;99.90;;;;;;5041393;28;20561;-72
2022/07/06 14:04:45;;;;;;;0.97;0.50;;;21.40;99.90;;;;;;5045328;28;21009;-72
2022/07/06 14:07:42;;;;;;;1.83;0.53;;;21.50;99.90;;;;;;5047928;28;20533;-73
2022/07/06 14:10:41;;;;;;;3.30;0.60;;;21.70;99.90;;;;;;5037927;28;20482;-71
2022/07/06 14:13:32;;;;;;;3.00;0.90;;;21.80;99.90;;;;;;5042132;28;20451;-72
2022/07/06 14:16:23;;;;;;;1.70;0.70;;;21.90;99.90;;;;;;5046504;28;20481;-73
2022/07/06 14:19:23;;;;;;;1.70;0.70;;;21.90;99.90;;;;;;5041762;28;20522;-72
2022/07/06 14:22:11;;;;;;;0.80;0.50;;;21.90;99.90;;;;;;5039178;28;20438;-72
2022/07/06 14:25:08;;;;;;;1.63;0.60;;;21.90;99.90;;;;;;5047274;28;20482;-71
2022/07/06 14:28:01;;;;;;;1.90;0.67;;;21.80;99.90;;;;;;5048804;28;20584;-73
2022/07/06 14:31:02;;;;;;;1.90;0.60;;;21.70;99.90;;;;;;5044135;28;20481;-71
2022/07/06 14:33:58;;;;;;;3.20;0.80;;;21.70;99.90;;;;;;5050462;28;20481;-71
2022/07/06 14:36:47;;;;;;;1.23;0.60;;;21.70;99.90;;;;;;5045406;28;20569;-71
2022/07/06 14:39:45;;;;;;;2.87;0.77;;;21.80;99.90;;;;;;5049248;28;20608;-71
2022/07/06 14:42:40;;;;;;;1.17;0.53;;;21.70;99.90;;;;;;5045810;28;20549;-71
2022/07/06 14:45:39;;;;;;;1.73;0.80;;;21.70;99.90;;;;;;5046146;28;20466;-71
2022/07/06 14:48:34;;;;;;;2.13;0.47;;;21.70;99.90;;;;;;5049177;28;20470;-71
2022/07/06 14:51:22;;;;;;;3.53;0.63;;;21.70;99.90;;;;;;5047344;28;20541;-71
2022/07/06 14:54:13;;;;;;;0.60;0.60;;;21.60;99.90;;;;;;5049091;28;20543;-71
2022/07/06 14:57:11;;;;;;;2.07;0.70;;;21.80;99.90;;;;;;5045446;28;20505;-71
2022/07/06 15:00:12;;;;;;;1.00;0.60;;;21.70;99.90;;;;;;5047216;28;20536;-71
2022/07/06 15:03:08;;;;;;;1.70;0.90;;;21.80;99.90;;;;;;5047931;28;21035;-72
2022/07/06 15:06:01;;;;;;;2.07;0.70;;;21.90;99.90;;;;;;5043158;28;20863;-71
2022/07/06 15:08:53;;;;;;;1.50;0.77;;;21.90;99.90;;;;;;5049381;28;20520;-71
2022/07/06 15:11:44;;;;;;;2.27;0.90;;;21.90;99.90;;;;;;5046848;28;20596;-72
2022/07/06 15:14:39;;;;;;;2.30;0.80;;;21.90;99.90;;;;;;5047054;28;20455;-72
2022/07/06 15:17:34;;;;;;;0.50;0.50;;;21.90;99.90;;;;;;5049414;28;20601;-71
2022/07/06 15:20:22;;;;;;;1.30;0.70;;;21.80;99.90;;;;;;5045760;28;20482;-71
2022/07/06 15:23:15;;;;;;;1.07;0.60;;;21.80;99.90;;;;;;5046358;28;20473;-72
2022/07/06 15:26:16;;;;;;;1.23;0.60;;;21.70;99.90;;;;;;5047931;28;20993;-72
2022/07/06 15:29:09;;;;;;;0.90;0.50;;;21.60;99.90;;;;;;5043340;28;20533;-70
2022/07/06 15:31:58;;;;;;;3.67;1.07;;;21.60;99.90;;;;;;5040737;28;20513;-71
2022/07/06 15:35:07;;;;;;;1.03;0.70;;;21.50;99.90;;;;;;5047023;28;20479;-72
2022/07/06 15:37:57;;;;;;;2.97;0.80;;;21.30;99.90;;;;;;5046213;28;21005;-73
2022/07/06 15:41:02;;;;;;;0.90;0.80;;;21.20;99.90;;;;;;5043447;28;21073;-72
2022/07/06 15:44:06;;;;;;;3.63;1.23;;;21.00;99.90;;;;;;5047094;28;20469;-72
2022/07/06 15:47:05;;;;;;;3.37;0.90;;;21.00;99.90;;;;;;5042104;28;20458;-72
2022/07/06 15:50:00;;;;;;;0.90;0.80;;;21.00;99.90;;;;;;5045840;28;21279;-71
2022/07/06 15:52:56;;;;;;;3.97;1.10;;;20.90;99.90;;;;;;5046143;28;20605;-71
2022/07/06 15:55:53;;;;;;;1.80;0.90;;;20.90;99.90;;;;;;5046340;28;20491;-71
2022/07/06 15:58:45;;;;;;;2.03;1.10;;;20.90;99.90;;;;;;5045988;28;20540;-72
2022/07/06 16:01:35;;;;;;;1.03;0.90;;;21.10;99.90;;;;;;5047822;28;20946;-71
2022/07/06 16:04:37;;;;;;;2.60;1.03;;;21.40;99.90;;;;;;5045804;28;20453;-72
2022/07/06 16:07:32;;;;;;;1.50;0.90;;;21.60;99.90;;;;;;5047317;28;20450;-72
2022/07/06 16:10:43;;;;;;;0.93;0.80;;;21.70;99.90;;;;;;5044575;28;20479;-72
2022/07/06 16:13:31;;;;;;;2.27;1.10;;;21.80;99.90;;;;;;5045728;28;20496;-70
2022/07/06 16:16:24;;;;;;;1.90;1.00;;;21.80;99.90;;;;;;5045624;28;20609;-70
2022/07/06 16:19:17;;;;;;;3.63;1.23;;;21.90;99.90;;;;;;5043794;28;20551;-70
2022/07/06 16:22:08;;;;;;;2.03;1.20;;;21.80;99.90;;;;;;5043135;28;20541;-71
2022/07/06 16:25:08;;;;;;;5.80;2.00;;;21.80;99.90;;;;;;5046022;28;20631;-71
2022/07/06 16:27:58;;;;;;;1.63;1.00;;;21.90;99.90;;;;;;5049279;28;20954;-71